Aviation Digital Data Service (ADDS)

Output produced by METARs form (2156 UTC 24 March 2017)
found at http://aviationweather.gov/adds/metars/
 
KRIC 241726Z 2418/2518 22011G19KT P6SM BKN120 
     FM250300 22007KT P6SM SCT200